sensor_id;sensor_type;location;lat;lon;timestamp;temperature;humidity
12726;DHT22;6427;49.754;6.106;2023-04-25T00:00:50;9.40;99.90
12726;DHT22;6427;49.754;6.106;2023-04-25T00:03:18;9.30;99.90
12726;DHT22;6427;49.754;6.106;2023-04-25T00:05:45;9.30;99.90
12726;DHT22;6427;49.754;6.106;2023-04-25T00:08:13;9.30;99.90
12726;DHT22;6427;49.754;6.106;2023-04-25T00:10:41;9.30;99.90
12726;DHT22;6427;49.754;6.106;2023-04-25T00:13:09;9.30;99.90
12726;DHT22;6427;49.754;6.106;2023-04-25T00:15:36;9.30;99.90
12726;DHT22;6427;49.754;6.106;2023-04-25T00:18:05;9.30;99.90
12726;DHT22;6427;49.754;6.106;2023-04-25T00:20:32;9.30;99.90
12726;DHT22;6427;49.754;6.106;2023-04-25T00:23:00;9.30;99.90
12726;DHT22;6427;49.754;6.106;2023-04-25T00:25:27;9.50;99.90
12726;DHT22;6427;49.754;6.106;2023-04-25T00:27:55;9.60;99.90
12726;DHT22;6427;49.754;6.106;2023-04-25T00:30:22;9.50;99.90
12726;DHT22;6427;49.754;6.106;2023-04-25T00:32:50;9.70;99.90
12726;DHT22;6427;49.754;6.106;2023-04-25T00:35:18;9.60;99.90
12726;DHT22;6427;49.754;6.106;2023-04-25T00:37:45;9.60;99.90
12726;DHT22;6427;49.754;6.106;2023-04-25T00:40:13;9.50;99.90
12726;DHT22;6427;49.754;6.106;2023-04-25T00:42:41;9.40;99.90
12726;DHT22;6427;49.754;6.106;2023-04-25T00:45:09;9.40;99.90
12726;DHT22;6427;49.754;6.106;2023-04-25T00:47:37;9.40;99.90
12726;DHT22;6427;49.754;6.106;2023-04-25T00:50:05;9.30;99.90
12726;DHT22;6427;49.754;6.106;2023-04-25T00:52:33;9.20;99.90
12726;DHT22;6427;49.754;6.106;2023-04-25T00:55:01;9.20;99.90
12726;DHT22;6427;49.754;6.106;2023-04-25T00:57:28;9.10;99.90
12726;DHT22;6427;49.754;6.106;2023-04-25T00:59:56;9.10;99.90
12726;DHT22;6427;49.754;6.106;2023-04-25T01:02:23;9.00;99.90
12726;DHT22;6427;49.754;6.106;2023-04-25T01:04:52;9.00;99.90
12726;DHT22;6427;49.754;6.106;2023-04-25T01:07:19;9.00;99.90
12726;DHT22;6427;49.754;6.106;2023-04-25T01:09:47;8.90;99.90
12726;DHT22;6427;49.754;6.106;2023-04-25T01:12:15;8.90;99.90
12726;DHT22;6427;49.754;6.106;2023-04-25T01:14:43;8.80;99.90
12726;DHT22;6427;49.754;6.106;2023-04-25T01:17:11;8.80;99.90
12726;DHT22;6427;49.754;6.106;2023-04-25T01:19:38;8.70;99.90
12726;DHT22;6427;49.754;6.106;2023-04-25T01:22:06;9.00;99.90
12726;DHT22;6427;49.754;6.106;2023-04-25T01:24:33;8.90;99.90
12726;DHT22;6427;49.754;6.106;2023-04-25T01:27:01;9.10;99.90
12726;DHT22;6427;49.754;6.106;2023-04-25T01:29:28;9.00;99.90
12726;DHT22;6427;49.754;6.106;2023-04-25T01:31:56;9.00;99.90
12726;DHT22;6427;49.754;6.106;2023-04-25T01:34:23;8.90;99.90
12726;DHT22;6427;49.754;6.106;2023-04-25T01:36:51;8.80;99.90
12726;DHT22;6427;49.754;6.106;2023-04-25T01:39:19;8.70;99.90
12726;DHT22;6427;49.754;6.106;2023-04-25T01:41:47;8.70;99.90
12726;DHT22;6427;49.754;6.106;2023-04-25T01:44:14;8.60;99.90
12726;DHT22;6427;49.754;6.106;2023-04-25T01:46:41;8.60;99.90
12726;DHT22;6427;49.754;6.106;2023-04-25T01:49:09;8.80;99.90
12726;DHT22;6427;49.754;6.106;2023-04-25T01:51:36;8.80;99.90
12726;DHT22;6427;49.754;6.106;2023-04-25T01:54:05;8.70;99.90
12726;DHT22;6427;49.754;6.106;2023-04-25T01:56:32;8.70;99.90
12726;DHT22;6427;49.754;6.106;2023-04-25T01:59:00;8.80;99.90
12726;DHT22;6427;49.754;6.106;2023-04-25T02:01:27;8.80;99.90
12726;DHT22;6427;49.754;6.106;2023-04-25T02:03:55;8.70;99.90
12726;DHT22;6427;49.754;6.106;2023-04-25T02:06:22;8.70;99.90
12726;DHT22;6427;49.754;6.106;2023-04-25T02:08:50;8.60;99.90
12726;DHT22;6427;49.754;6.106;2023-04-25T02:11:18;8.60;99.90
12726;DHT22;6427;49.754;6.106;2023-04-25T02:13:47;8.50;99.90
12726;DHT22;6427;49.754;6.106;2023-04-25T02:16:15;8.50;99.90
12726;DHT22;6427;49.754;6.106;2023-04-25T02:18:42;8.50;99.90
12726;DHT22;6427;49.754;6.106;2023-04-25T02:21:10;8.50;99.90
12726;DHT22;6427;49.754;6.106;2023-04-25T02:23:38;8.40;99.90
12726;DHT22;6427;49.754;6.106;2023-04-25T02:26:06;8.40;99.90
12726;DHT22;6427;49.754;6.106;2023-04-25T02:28:33;8.40;99.90
12726;DHT22;6427;49.754;6.106;2023-04-25T02:31:02;8.40;99.90
12726;DHT22;6427;49.754;6.106;2023-04-25T02:33:29;8.40;99.90
12726;DHT22;6427;49.754;6.106;2023-04-25T02:35:57;8.40;99.90
12726;DHT22;6427;49.754;6.106;2023-04-25T02:38:24;8.40;99.90
12726;DHT22;6427;49.754;6.106;2023-04-25T02:40:53;8.40;99.90
12726;DHT22;6427;49.754;6.106;2023-04-25T02:43:21;8.40;99.90
12726;DHT22;6427;49.754;6.106;2023-04-25T02:45:48;8.40;99.90
12726;DHT22;6427;49.754;6.106;2023-04-25T02:48:16;8.40;99.90
12726;DHT22;6427;49.754;6.106;2023-04-25T02:50:43;8.60;99.90
12726;DHT22;6427;49.754;6.106;2023-04-25T02:53:12;8.50;99.90
12726;DHT22;6427;49.754;6.106;2023-04-25T02:55:39;8.50;99.90
12726;DHT22;6427;49.754;6.106;2023-04-25T02:58:08;8.40;99.90
12726;DHT22;6427;49.754;6.106;2023-04-25T03:00:35;8.40;99.90
12726;DHT22;6427;49.754;6.106;2023-04-25T03:03:03;8.40;99.90
12726;DHT22;6427;49.754;6.106;2023-04-25T03:05:31;8.60;99.90
12726;DHT22;6427;49.754;6.106;2023-04-25T03:07:59;8.50;99.90
12726;DHT22;6427;49.754;6.106;2023-04-25T03:10:27;8.50;99.90
12726;DHT22;6427;49.754;6.106;2023-04-25T03:12:54;8.40;99.90
12726;DHT22;6427;49.754;6.106;2023-04-25T03:15:23;8.30;99.90
12726;DHT22;6427;49.754;6.106;2023-04-25T03:17:50;8.30;99.90
12726;DHT22;6427;49.754;6.106;2023-04-25T03:20:19;8.30;99.90
12726;DHT22;6427;49.754;6.106;2023-04-25T03:22:46;8.30;99.90
12726;DHT22;6427;49.754;6.106;2023-04-25T03:25:14;8.30;99.90
12726;DHT22;6427;49.754;6.106;2023-04-25T03:27:42;8.20;99.90
12726;DHT22;6427;49.754;6.106;2023-04-25T03:30:10;8.20;99.90
12726;DHT22;6427;49.754;6.106;2023-04-25T03:32:37;8.20;99.90
12726;DHT22;6427;49.754;6.106;2023-04-25T03:35:05;8.20;99.90
12726;DHT22;6427;49.754;6.106;2023-04-25T03:37:33;8.20;99.90
12726;DHT22;6427;49.754;6.106;2023-04-25T03:40:01;8.20;99.90
12726;DHT22;6427;49.754;6.106;2023-04-25T03:42:29;8.10;99.90
12726;DHT22;6427;49.754;6.106;2023-04-25T03:44:56;8.20;99.90
12726;DHT22;6427;49.754;6.106;2023-04-25T03:47:24;8.10;99.90
12726;DHT22;6427;49.754;6.106;2023-04-25T03:49:52;8.10;99.90
12726;DHT22;6427;49.754;6.106;2023-04-25T03:52:19;8.00;99.90
12726;DHT22;6427;49.754;6.106;2023-04-25T03:54:47;8.00;99.90
12726;DHT22;6427;49.754;6.106;2023-04-25T03:57:14;8.00;99.90
12726;DHT22;6427;49.754;6.106;2023-04-25T03:59:42;8.00;99.90
12726;DHT22;6427;49.754;6.106;2023-04-25T04:02:10;8.00;99.90
12726;DHT22;6427;49.754;6.106;2023-04-25T04:04:39;7.90;99.90
12726;DHT22;6427;49.754;6.106;2023-04-25T04:07:06;7.90;99.90
12726;DHT22;6427;49.754;6.106;2023-04-25T04:09:34;7.90;99.90
12726;DHT22;6427;49.754;6.106;2023-04-25T04:12:02;7.90;99.90
12726;DHT22;6427;49.754;6.106;2023-04-25T04:14:31;7.90;99.90
12726;DHT22;6427;49.754;6.106;2023-04-25T04:16:58;7.90;99.90
12726;DHT22;6427;49.754;6.106;2023-04-25T04:19:26;7.90;99.90
12726;DHT22;6427;49.754;6.106;2023-04-25T04:21:55;7.90;99.90
12726;DHT22;6427;49.754;6.106;2023-04-25T04:24:23;7.90;99.90
12726;DHT22;6427;49.754;6.106;2023-04-25T04:26:51;7.90;99.90
12726;DHT22;6427;49.754;6.106;2023-04-25T04:29:18;7.90;99.90
12726;DHT22;6427;49.754;6.106;2023-04-25T04:31:47;8.00;99.90
12726;DHT22;6427;49.754;6.106;2023-04-25T04:34:13;8.00;99.90
12726;DHT22;6427;49.754;6.106;2023-04-25T04:36:44;8.00;99.90
12726;DHT22;6427;49.754;6.106;2023-04-25T04:39:12;8.00;99.90
12726;DHT22;6427;49.754;6.106;2023-04-25T04:41:40;8.00;99.90
12726;DHT22;6427;49.754;6.106;2023-04-25T04:44:08;8.00;99.90
12726;DHT22;6427;49.754;6.106;2023-04-25T04:46:36;8.10;99.90
12726;DHT22;6427;49.754;6.106;2023-04-25T04:49:06;8.10;99.90
12726;DHT22;6427;49.754;6.106;2023-04-25T04:51:35;8.10;99.90
12726;DHT22;6427;49.754;6.106;2023-04-25T04:54:02;8.10;99.90
12726;DHT22;6427;49.754;6.106;2023-04-25T04:56:30;8.10;99.90
12726;DHT22;6427;49.754;6.106;2023-04-25T04:59:01;8.10;99.90
12726;DHT22;6427;49.754;6.106;2023-04-25T05:01:28;8.30;99.90
12726;DHT22;6427;49.754;6.106;2023-04-25T05:03:58;8.40;99.90
12726;DHT22;6427;49.754;6.106;2023-04-25T05:06:26;8.40;99.90
12726;DHT22;6427;49.754;6.106;2023-04-25T05:08:53;8.30;99.90
12726;DHT22;6427;49.754;6.106;2023-04-25T05:11:21;8.30;99.90
12726;DHT22;6427;49.754;6.106;2023-04-25T05:13:51;8.30;99.90
12726;DHT22;6427;49.754;6.106;2023-04-25T05:16:17;8.30;99.90
12726;DHT22;6427;49.754;6.106;2023-04-25T05:18:45;8.30;99.90
12726;DHT22;6427;49.754;6.106;2023-04-25T05:21:12;8.30;99.90
12726;DHT22;6427;49.754;6.106;2023-04-25T05:23:40;8.50;99.90
12726;DHT22;6427;49.754;6.106;2023-04-25T05:26:07;8.50;99.90
12726;DHT22;6427;49.754;6.106;2023-04-25T05:28:35;8.50;99.90
12726;DHT22;6427;49.754;6.106;2023-04-25T05:31:02;8.50;99.90
12726;DHT22;6427;49.754;6.106;2023-04-25T05:33:30;8.50;99.90
12726;DHT22;6427;49.754;6.106;2023-04-25T05:35:57;8.50;99.90
12726;DHT22;6427;49.754;6.106;2023-04-25T05:38:25;8.50;99.90
12726;DHT22;6427;49.754;6.106;2023-04-25T05:40:52;8.50;99.90
12726;DHT22;6427;49.754;6.106;2023-04-25T05:43:20;8.70;99.90
12726;DHT22;6427;49.754;6.106;2023-04-25T05:45:48;8.80;99.90
12726;DHT22;6427;49.754;6.106;2023-04-25T05:48:16;8.80;99.90
12726;DHT22;6427;49.754;6.106;2023-04-25T05:50:44;8.80;99.90
12726;DHT22;6427;49.754;6.106;2023-04-25T05:53:12;8.80;99.90
12726;DHT22;6427;49.754;6.106;2023-04-25T05:55:40;8.80;99.90
12726;DHT22;6427;49.754;6.106;2023-04-25T05:58:07;8.80;99.90
12726;DHT22;6427;49.754;6.106;2023-04-25T06:00:35;8.80;99.90
12726;DHT22;6427;49.754;6.106;2023-04-25T06:03:03;9.00;99.90
12726;DHT22;6427;49.754;6.106;2023-04-25T06:05:31;9.00;99.90
12726;DHT22;6427;49.754;6.106;2023-04-25T06:07:58;9.00;99.90
12726;DHT22;6427;49.754;6.106;2023-04-25T06:10:27;9.00;99.90
12726;DHT22;6427;49.754;6.106;2023-04-25T06:12:54;8.90;99.90
12726;DHT22;6427;49.754;6.106;2023-04-25T06:15:22;9.00;99.90
12726;DHT22;6427;49.754;6.106;2023-04-25T06:17:50;9.00;99.90
12726;DHT22;6427;49.754;6.106;2023-04-25T06:20:18;9.00;99.90
12726;DHT22;6427;49.754;6.106;2023-04-25T06:22:45;8.90;99.90
12726;DHT22;6427;49.754;6.106;2023-04-25T06:25:13;8.90;99.90
12726;DHT22;6427;49.754;6.106;2023-04-25T06:27:41;8.80;99.90
12726;DHT22;6427;49.754;6.106;2023-04-25T06:30:09;8.80;99.90
12726;DHT22;6427;49.754;6.106;2023-04-25T06:32:36;9.00;99.90
12726;DHT22;6427;49.754;6.106;2023-04-25T06:35:05;9.00;99.90
12726;DHT22;6427;49.754;6.106;2023-04-25T06:37:32;9.00;99.90
12726;DHT22;6427;49.754;6.106;2023-04-25T06:40:00;8.90;99.90
12726;DHT22;6427;49.754;6.106;2023-04-25T06:42:27;8.90;99.90
12726;DHT22;6427;49.754;6.106;2023-04-25T06:44:55;8.90;99.90
12726;DHT22;6427;49.754;6.106;2023-04-25T06:47:23;8.80;99.90
12726;DHT22;6427;49.754;6.106;2023-04-25T06:49:50;8.80;99.90
12726;DHT22;6427;49.754;6.106;2023-04-25T06:52:18;8.80;99.90
12726;DHT22;6427;49.754;6.106;2023-04-25T06:54:46;8.80;99.90
12726;DHT22;6427;49.754;6.106;2023-04-25T06:57:14;8.80;99.90
12726;DHT22;6427;49.754;6.106;2023-04-25T06:59:42;8.80;99.90
12726;DHT22;6427;49.754;6.106;2023-04-25T07:02:09;8.70;99.90
12726;DHT22;6427;49.754;6.106;2023-04-25T07:04:37;8.70;99.90
12726;DHT22;6427;49.754;6.106;2023-04-25T07:07:05;8.70;99.90
12726;DHT22;6427;49.754;6.106;2023-04-25T07:09:32;8.70;99.90
12726;DHT22;6427;49.754;6.106;2023-04-25T07:12:00;8.90;99.90
12726;DHT22;6427;49.754;6.106;2023-04-25T07:14:27;9.00;99.90
12726;DHT22;6427;49.754;6.106;2023-04-25T07:16:55;8.90;99.90
12726;DHT22;6427;49.754;6.106;2023-04-25T07:19:25;8.90;99.90
12726;DHT22;6427;49.754;6.106;2023-04-25T07:21:53;8.90;99.90
12726;DHT22;6427;49.754;6.106;2023-04-25T07:24:21;8.90;99.90
12726;DHT22;6427;49.754;6.106;2023-04-25T07:26:49;8.90;99.90
12726;DHT22;6427;49.754;6.106;2023-04-25T07:29:17;8.90;99.90
12726;DHT22;6427;49.754;6.106;2023-04-25T07:31:44;8.90;99.90
12726;DHT22;6427;49.754;6.106;2023-04-25T07:34:12;8.80;99.90
12726;DHT22;6427;49.754;6.106;2023-04-25T07:36:39;8.80;99.90
12726;DHT22;6427;49.754;6.106;2023-04-25T07:39:07;8.90;99.90
12726;DHT22;6427;49.754;6.106;2023-04-25T07:41:34;8.90;99.90
12726;DHT22;6427;49.754;6.106;2023-04-25T07:44:02;8.90;99.90
12726;DHT22;6427;49.754;6.106;2023-04-25T07:46:29;8.90;99.90
12726;DHT22;6427;49.754;6.106;2023-04-25T07:48:57;9.10;99.90
12726;DHT22;6427;49.754;6.106;2023-04-25T07:51:24;9.10;99.90
12726;DHT22;6427;49.754;6.106;2023-04-25T07:53:52;9.10;99.90
12726;DHT22;6427;49.754;6.106;2023-04-25T07:56:20;9.00;99.90
12726;DHT22;6427;49.754;6.106;2023-04-25T07:58:48;9.00;99.90
12726;DHT22;6427;49.754;6.106;2023-04-25T08:01:15;9.00;99.90
12726;DHT22;6427;49.754;6.106;2023-04-25T08:03:43;9.00;99.90
12726;DHT22;6427;49.754;6.106;2023-04-25T08:06:11;8.90;99.90
12726;DHT22;6427;49.754;6.106;2023-04-25T08:08:38;8.90;99.90
12726;DHT22;6427;49.754;6.106;2023-04-25T08:11:06;8.80;99.90
12726;DHT22;6427;49.754;6.106;2023-04-25T08:13:33;8.80;99.90
12726;DHT22;6427;49.754;6.106;2023-04-25T08:16:01;8.80;99.90
12726;DHT22;6427;49.754;6.106;2023-04-25T08:18:29;8.90;99.90
12726;DHT22;6427;49.754;6.106;2023-04-25T08:20:57;8.90;99.90
12726;DHT22;6427;49.754;6.106;2023-04-25T08:23:24;8.90;99.90
12726;DHT22;6427;49.754;6.106;2023-04-25T08:25:52;8.90;99.90
12726;DHT22;6427;49.754;6.106;2023-04-25T08:28:19;9.00;99.90
12726;DHT22;6427;49.754;6.106;2023-04-25T08:30:47;9.00;99.90
12726;DHT22;6427;49.754;6.106;2023-04-25T08:33:14;9.00;99.90
12726;DHT22;6427;49.754;6.106;2023-04-25T08:35:42;9.00;99.90
12726;DHT22;6427;49.754;6.106;2023-04-25T08:38:10;9.00;99.90
12726;DHT22;6427;49.754;6.106;2023-04-25T08:40:38;9.00;99.90
12726;DHT22;6427;49.754;6.106;2023-04-25T08:43:09;9.00;99.90
12726;DHT22;6427;49.754;6.106;2023-04-25T08:45:38;9.00;99.90
12726;DHT22;6427;49.754;6.106;2023-04-25T08:48:04;9.00;99.90
12726;DHT22;6427;49.754;6.106;2023-04-25T08:50:31;9.00;99.90
12726;DHT22;6427;49.754;6.106;2023-04-25T08:52:59;9.00;99.90
12726;DHT22;6427;49.754;6.106;2023-04-25T08:55:26;9.00;99.90
12726;DHT22;6427;49.754;6.106;2023-04-25T08:57:54;9.00;99.90
12726;DHT22;6427;49.754;6.106;2023-04-25T09:00:21;9.00;99.90
12726;DHT22;6427;49.754;6.106;2023-04-25T09:02:49;9.00;99.90
12726;DHT22;6427;49.754;6.106;2023-04-25T09:05:17;9.00;99.90
12726;DHT22;6427;49.754;6.106;2023-04-25T09:07:44;9.00;99.90
12726;DHT22;6427;49.754;6.106;2023-04-25T09:10:12;9.00;99.90
12726;DHT22;6427;49.754;6.106;2023-04-25T09:12:39;8.90;99.90
12726;DHT22;6427;49.754;6.106;2023-04-25T09:15:08;8.90;99.90
12726;DHT22;6427;49.754;6.106;2023-04-25T09:17:35;8.80;99.90
12726;DHT22;6427;49.754;6.106;2023-04-25T09:20:06;8.80;99.90
12726;DHT22;6427;49.754;6.106;2023-04-25T09:22:34;8.80;99.90
12726;DHT22;6427;49.754;6.106;2023-04-25T09:25:11;8.80;99.90
12726;DHT22;6427;49.754;6.106;2023-04-25T09:27:49;8.90;99.90
12726;DHT22;6427;49.754;6.106;2023-04-25T09:30:05;8.90;99.90
12726;DHT22;6427;49.754;6.106;2023-04-25T09:32:33;9.00;99.90
12726;DHT22;6427;49.754;6.106;2023-04-25T09:35:00;9.10;99.90
12726;DHT22;6427;49.754;6.106;2023-04-25T09:37:28;9.20;99.90
12726;DHT22;6427;49.754;6.106;2023-04-25T09:39:57;9.30;99.90
12726;DHT22;6427;49.754;6.106;2023-04-25T09:42:24;9.30;99.90
12726;DHT22;6427;49.754;6.106;2023-04-25T09:44:52;9.30;99.90
12726;DHT22;6427;49.754;6.106;2023-04-25T09:47:19;9.40;99.90
12726;DHT22;6427;49.754;6.106;2023-04-25T09:49:46;9.40;99.90
12726;DHT22;6427;49.754;6.106;2023-04-25T09:52:16;9.50;99.90
12726;DHT22;6427;49.754;6.106;2023-04-25T09:54:42;9.50;99.90
12726;DHT22;6427;49.754;6.106;2023-04-25T09:57:16;9.60;99.90
12726;DHT22;6427;49.754;6.106;2023-04-25T09:59:47;9.60;99.90
12726;DHT22;6427;49.754;6.106;2023-04-25T10:02:11;9.70;99.90
12726;DHT22;6427;49.754;6.106;2023-04-25T10:04:38;9.80;99.90
12726;DHT22;6427;49.754;6.106;2023-04-25T10:07:06;10.00;99.90
12726;DHT22;6427;49.754;6.106;2023-04-25T10:09:33;10.10;99.90
12726;DHT22;6427;49.754;6.106;2023-04-25T10:12:01;10.20;99.90
12726;DHT22;6427;49.754;6.106;2023-04-25T10:14:32;10.40;99.90
12726;DHT22;6427;49.754;6.106;2023-04-25T10:16:59;10.80;99.90
12726;DHT22;6427;49.754;6.106;2023-04-25T10:19:28;10.90;99.90
12726;DHT22;6427;49.754;6.106;2023-04-25T10:22:02;10.80;99.90
12726;DHT22;6427;49.754;6.106;2023-04-25T10:24:25;10.90;99.90
12726;DHT22;6427;49.754;6.106;2023-04-25T10:26:53;11.00;99.90
12726;DHT22;6427;49.754;6.106;2023-04-25T10:29:22;11.10;99.90
12726;DHT22;6427;49.754;6.106;2023-04-25T10:31:49;11.10;99.90
12726;DHT22;6427;49.754;6.106;2023-04-25T10:34:17;11.10;99.90
12726;DHT22;6427;49.754;6.106;2023-04-25T10:36:54;11.10;99.90
12726;DHT22;6427;49.754;6.106;2023-04-25T10:39:12;11.20;99.90
12726;DHT22;6427;49.754;6.106;2023-04-25T10:41:52;11.20;99.90
12726;DHT22;6427;49.754;6.106;2023-04-25T10:44:14;11.30;99.90
12726;DHT22;6427;49.754;6.106;2023-04-25T10:46:43;11.30;99.90
12726;DHT22;6427;49.754;6.106;2023-04-25T10:49:10;11.30;99.90
12726;DHT22;6427;49.754;6.106;2023-04-25T10:51:37;11.20;99.90
12726;DHT22;6427;49.754;6.106;2023-04-25T10:54:06;11.20;99.90
12726;DHT22;6427;49.754;6.106;2023-04-25T10:59:13;11.00;99.90
12726;DHT22;6427;49.754;6.106;2023-04-25T11:01:41;11.10;99.90
12726;DHT22;6427;49.754;6.106;2023-04-25T11:04:30;11.10;99.90
12726;DHT22;6427;49.754;6.106;2023-04-25T11:09:34;11.30;99.90
12726;DHT22;6427;49.754;6.106;2023-04-25T11:12:01;11.30;99.90
12726;DHT22;6427;49.754;6.106;2023-04-25T11:14:28;11.30;99.90
12726;DHT22;6427;49.754;6.106;2023-04-25T11:16:56;11.20;99.90
12726;DHT22;6427;49.754;6.106;2023-04-25T11:19:24;11.20;99.90
12726;DHT22;6427;49.754;6.106;2023-04-25T11:21:54;11.10;99.90
12726;DHT22;6427;49.754;6.106;2023-04-25T11:24:19;11.10;99.90
12726;DHT22;6427;49.754;6.106;2023-04-25T11:26:47;11.20;99.90
12726;DHT22;6427;49.754;6.106;2023-04-25T11:29:17;11.10;99.90
12726;DHT22;6427;49.754;6.106;2023-04-25T11:31:45;11.40;99.90
12726;DHT22;6427;49.754;6.106;2023-04-25T11:34:16;11.80;99.90
12726;DHT22;6427;49.754;6.106;2023-04-25T11:36:40;12.10;99.90
12726;DHT22;6427;49.754;6.106;2023-04-25T11:39:07;12.30;99.90
12726;DHT22;6427;49.754;6.106;2023-04-25T11:41:36;12.40;99.90
12726;DHT22;6427;49.754;6.106;2023-04-25T11:44:02;12.30;99.90
12726;DHT22;6427;49.754;6.106;2023-04-25T11:46:33;12.00;99.90
12726;DHT22;6427;49.754;6.106;2023-04-25T11:48:58;12.00;99.90
12726;DHT22;6427;49.754;6.106;2023-04-25T11:51:26;12.00;99.90
12726;DHT22;6427;49.754;6.106;2023-04-25T11:53:53;11.90;99.90
12726;DHT22;6427;49.754;6.106;2023-04-25T11:56:21;11.90;99.90
12726;DHT22;6427;49.754;6.106;2023-04-25T11:59:01;11.80;99.90
12726;DHT22;6427;49.754;6.106;2023-04-25T12:01:31;11.80;99.90
12726;DHT22;6427;49.754;6.106;2023-04-25T12:03:58;11.70;99.90
12726;DHT22;6427;49.754;6.106;2023-04-25T12:06:28;11.60;99.90
12726;DHT22;6427;49.754;6.106;2023-04-25T12:09:03;11.50;99.90
12726;DHT22;6427;49.754;6.106;2023-04-25T12:11:30;11.40;99.90
12726;DHT22;6427;49.754;6.106;2023-04-25T12:14:06;11.30;99.90
12726;DHT22;6427;49.754;6.106;2023-04-25T12:16:25;11.30;99.90
12726;DHT22;6427;49.754;6.106;2023-04-25T12:18:52;11.30;99.90
12726;DHT22;6427;49.754;6.106;2023-04-25T12:21:21;11.30;99.90
12726;DHT22;6427;49.754;6.106;2023-04-25T12:23:48;11.30;99.90
12726;DHT22;6427;49.754;6.106;2023-04-25T12:26:17;11.40;99.90
12726;DHT22;6427;49.754;6.106;2023-04-25T12:28:45;11.60;99.40
12726;DHT22;6427;49.754;6.106;2023-04-25T12:31:11;11.80;98.20
12726;DHT22;6427;49.754;6.106;2023-04-25T12:33:39;11.70;98.40
12726;DHT22;6427;49.754;6.106;2023-04-25T12:36:07;11.70;98.30
12726;DHT22;6427;49.754;6.106;2023-04-25T12:38:41;11.70;98.40
12726;DHT22;6427;49.754;6.106;2023-04-25T12:41:07;11.80;98.10
12726;DHT22;6427;49.754;6.106;2023-04-25T12:43:35;11.80;97.50
12726;DHT22;6427;49.754;6.106;2023-04-25T12:46:02;11.80;96.80
12726;DHT22;6427;49.754;6.106;2023-04-25T12:48:30;11.70;96.10
12726;DHT22;6427;49.754;6.106;2023-04-25T12:50:57;11.80;96.40
12726;DHT22;6427;49.754;6.106;2023-04-25T12:53:25;11.90;96.40
12726;DHT22;6427;49.754;6.106;2023-04-25T12:55:53;12.00;96.70
12726;DHT22;6427;49.754;6.106;2023-04-25T12:58:20;12.10;96.70
12726;DHT22;6427;49.754;6.106;2023-04-25T13:00:48;12.20;96.50
12726;DHT22;6427;49.754;6.106;2023-04-25T13:03:15;12.20;96.60
12726;DHT22;6427;49.754;6.106;2023-04-25T13:05:43;12.20;96.50
12726;DHT22;6427;49.754;6.106;2023-04-25T13:08:10;12.20;96.50
12726;DHT22;6427;49.754;6.106;2023-04-25T13:10:38;12.20;96.40
12726;DHT22;6427;49.754;6.106;2023-04-25T13:13:06;12.10;96.10
12726;DHT22;6427;49.754;6.106;2023-04-25T13:15:34;12.10;96.10
12726;DHT22;6427;49.754;6.106;2023-04-25T13:18:03;12.10;95.70
12726;DHT22;6427;49.754;6.106;2023-04-25T13:20:29;12.10;95.40
12726;DHT22;6427;49.754;6.106;2023-04-25T13:22:57;12.10;94.70
12726;DHT22;6427;49.754;6.106;2023-04-25T13:25:25;12.20;94.40
12726;DHT22;6427;49.754;6.106;2023-04-25T13:28:01;12.20;94.30
12726;DHT22;6427;49.754;6.106;2023-04-25T13:30:31;12.50;92.70
12726;DHT22;6427;49.754;6.106;2023-04-25T13:33:06;12.50;91.90
12726;DHT22;6427;49.754;6.106;2023-04-25T13:35:40;12.50;91.90
12726;DHT22;6427;49.754;6.106;2023-04-25T13:38:08;12.50;92.20
12726;DHT22;6427;49.754;6.106;2023-04-25T13:40:39;12.50;92.10
12726;DHT22;6427;49.754;6.106;2023-04-25T13:43:08;12.50;91.80
12726;DHT22;6427;49.754;6.106;2023-04-25T13:45:36;12.60;92.10
12726;DHT22;6427;49.754;6.106;2023-04-25T13:48:05;12.60;92.00
12726;DHT22;6427;49.754;6.106;2023-04-25T13:50:34;12.70;91.40
12726;DHT22;6427;49.754;6.106;2023-04-25T13:53:02;12.70;91.30
12726;DHT22;6427;49.754;6.106;2023-04-25T13:55:34;12.80;91.40
12726;DHT22;6427;49.754;6.106;2023-04-25T13:58:01;13.10;90.20
12726;DHT22;6427;49.754;6.106;2023-04-25T14:00:33;13.30;88.50
12726;DHT22;6427;49.754;6.106;2023-04-25T14:03:01;13.30;88.50
12726;DHT22;6427;49.754;6.106;2023-04-25T14:05:31;13.10;87.10
12726;DHT22;6427;49.754;6.106;2023-04-25T14:08:08;12.90;85.80
12726;DHT22;6427;49.754;6.106;2023-04-25T14:10:41;12.80;86.90
12726;DHT22;6427;49.754;6.106;2023-04-25T14:13:12;12.60;87.40
12726;DHT22;6427;49.754;6.106;2023-04-25T14:15:40;12.50;87.50
12726;DHT22;6427;49.754;6.106;2023-04-25T14:18:21;12.50;87.50
12726;DHT22;6427;49.754;6.106;2023-04-25T14:20:50;12.40;88.00
12726;DHT22;6427;49.754;6.106;2023-04-25T14:23:18;12.40;87.90
12726;DHT22;6427;49.754;6.106;2023-04-25T14:25:47;12.30;83.00
12726;DHT22;6427;49.754;6.106;2023-04-25T14:28:17;12.30;83.00
12726;DHT22;6427;49.754;6.106;2023-04-25T14:30:48;12.30;83.00
12726;DHT22;6427;49.754;6.106;2023-04-25T14:33:16;12.20;83.10
12726;DHT22;6427;49.754;6.106;2023-04-25T14:35:46;12.20;82.80
12726;DHT22;6427;49.754;6.106;2023-04-25T14:38:14;12.30;83.20
12726;DHT22;6427;49.754;6.106;2023-04-25T14:40:42;12.20;83.80
12726;DHT22;6427;49.754;6.106;2023-04-25T14:43:13;12.30;84.30
12726;DHT22;6427;49.754;6.106;2023-04-25T14:45:38;12.30;84.10
12726;DHT22;6427;49.754;6.106;2023-04-25T14:48:06;12.40;84.30
12726;DHT22;6427;49.754;6.106;2023-04-25T14:50:35;12.60;83.20
12726;DHT22;6427;49.754;6.106;2023-04-25T14:53:04;12.50;83.20
12726;DHT22;6427;49.754;6.106;2023-04-25T14:55:35;12.60;82.90
12726;DHT22;6427;49.754;6.106;2023-04-25T14:58:00;12.60;83.00
12726;DHT22;6427;49.754;6.106;2023-04-25T15:00:28;12.60;83.30
12726;DHT22;6427;49.754;6.106;2023-04-25T15:02:59;12.60;81.60
12726;DHT22;6427;49.754;6.106;2023-04-25T15:05:28;12.50;81.10
12726;DHT22;6427;49.754;6.106;2023-04-25T15:07:57;12.40;82.00
12726;DHT22;6427;49.754;6.106;2023-04-25T15:10:25;12.30;82.00
12726;DHT22;6427;49.754;6.106;2023-04-25T15:12:56;12.30;82.00
12726;DHT22;6427;49.754;6.106;2023-04-25T15:15:26;12.20;82.30
12726;DHT22;6427;49.754;6.106;2023-04-25T15:17:56;12.20;82.00
12726;DHT22;6427;49.754;6.106;2023-04-25T15:20:24;12.10;81.70
12726;DHT22;6427;49.754;6.106;2023-04-25T15:23:01;12.00;82.20
12726;DHT22;6427;49.754;6.106;2023-04-25T15:25:31;11.90;82.50
12726;DHT22;6427;49.754;6.106;2023-04-25T15:28:02;12.10;82.00
12726;DHT22;6427;49.754;6.106;2023-04-25T15:30:33;12.00;81.90
12726;DHT22;6427;49.754;6.106;2023-04-25T15:33:07;11.90;82.70
12726;DHT22;6427;49.754;6.106;2023-04-25T15:35:38;11.80;84.10
12726;DHT22;6427;49.754;6.106;2023-04-25T15:38:07;11.80;84.10
12726;DHT22;6427;49.754;6.106;2023-04-25T15:40:36;11.80;84.40
12726;DHT22;6427;49.754;6.106;2023-04-25T15:43:04;11.80;84.40
12726;DHT22;6427;49.754;6.106;2023-04-25T15:45:33;11.70;83.90
12726;DHT22;6427;49.754;6.106;2023-04-25T15:48:09;11.60;83.70
12726;DHT22;6427;49.754;6.106;2023-04-25T15:50:39;11.60;83.60
12726;DHT22;6427;49.754;6.106;2023-04-25T15:53:07;11.60;83.70
12726;DHT22;6427;49.754;6.106;2023-04-25T15:55:35;11.50;83.80
12726;DHT22;6427;49.754;6.106;2023-04-25T15:58:04;11.50;84.30
12726;DHT22;6427;49.754;6.106;2023-04-25T16:00:33;11.40;84.30
12726;DHT22;6427;49.754;6.106;2023-04-25T16:03:06;11.40;84.30
12726;DHT22;6427;49.754;6.106;2023-04-25T16:05:43;11.30;85.00